sensor_id;sensor_type;location;lat;lon;timestamp;pressure;altitude;pressure_sealevel;temperature;humidity
10881;BME280;5493;48.884;8.338;2023-02-08T00:02:10;102258.94;;;0.80;100.00
10881;BME280;5493;48.884;8.338;2023-02-08T00:04:37;102263.19;;;0.70;100.00
10881;BME280;5493;48.884;8.338;2023-02-08T00:07:05;102255.75;;;0.63;100.00
10881;BME280;5493;48.884;8.338;2023-02-08T00:09:31;102260.66;;;0.56;100.00
10881;BME280;5493;48.884;8.338;2023-02-08T00:11:58;102253.97;;;0.76;100.00
10881;BME280;5493;48.884;8.338;2023-02-08T00:14:24;102259.19;;;0.65;100.00
10881;BME280;5493;48.884;8.338;2023-02-08T00:16:51;102257.16;;;0.68;100.00
10881;BME280;5493;48.884;8.338;2023-02-08T00:19:17;102254.91;;;0.62;100.00
10881;BME280;5493;48.884;8.338;2023-02-08T00:21:44;102259.59;;;0.46;100.00
10881;BME280;5493;48.884;8.338;2023-02-08T00:24:11;102250.78;;;0.58;100.00
10881;BME280;5493;48.884;8.338;2023-02-08T00:26:38;102251.97;;;0.29;100.00
10881;BME280;5493;48.884;8.338;2023-02-08T00:29:04;102263.09;;;0.59;100.00
10881;BME280;5493;48.884;8.338;2023-02-08T00:31:31;102253.97;;;0.63;100.00
10881;BME280;5493;48.884;8.338;2023-02-08T00:33:57;102255.91;;;0.61;100.00
10881;BME280;5493;48.884;8.338;2023-02-08T00:36:24;102258.63;;;0.22;100.00
10881;BME280;5493;48.884;8.338;2023-02-08T00:38:50;102251.84;;;0.56;100.00
10881;BME280;5493;48.884;8.338;2023-02-08T00:41:19;102250.25;;;0.66;100.00
10881;BME280;5493;48.884;8.338;2023-02-08T00:43:45;102247.81;;;0.50;100.00
10881;BME280;5493;48.884;8.338;2023-02-08T00:46:13;102247.59;;;0.66;100.00
10881;BME280;5493;48.884;8.338;2023-02-08T00:48:39;102245.81;;;0.54;100.00
10881;BME280;5493;48.884;8.338;2023-02-08T00:51:08;102243.38;;;0.51;100.00
10881;BME280;5493;48.884;8.338;2023-02-08T00:53:35;102246.66;;;0.29;100.00
10881;BME280;5493;48.884;8.338;2023-02-08T00:56:03;102249.72;;;0.23;100.00
10881;BME280;5493;48.884;8.338;2023-02-08T00:58:31;102246.66;;;0.54;100.00
10881;BME280;5493;48.884;8.338;2023-02-08T01:00:57;102240.28;;;0.57;100.00
10881;BME280;5493;48.884;8.338;2023-02-08T01:03:24;102243.34;;;0.38;100.00
10881;BME280;5493;48.884;8.338;2023-02-08T01:05:51;102248.75;;;0.36;100.00
10881;BME280;5493;48.884;8.338;2023-02-08T01:08:18;102252.28;;;0.24;100.00
10881;BME280;5493;48.884;8.338;2023-02-08T01:10:45;102246.22;;;0.35;100.00
10881;BME280;5493;48.884;8.338;2023-02-08T01:13:12;102243.78;;;0.32;100.00
10881;BME280;5493;48.884;8.338;2023-02-08T01:15:40;102243.88;;;0.30;100.00
10881;BME280;5493;48.884;8.338;2023-02-08T01:18:07;102239.13;;;0.35;100.00
10881;BME280;5493;48.884;8.338;2023-02-08T01:20:35;102241.78;;;0.35;100.00
10881;BME280;5493;48.884;8.338;2023-02-08T01:23:02;102232.53;;;0.28;100.00
10881;BME280;5493;48.884;8.338;2023-02-08T01:25:30;102239.97;;;0.11;100.00
10881;BME280;5493;48.884;8.338;2023-02-08T01:27:56;102241.50;;;-0.12;100.00
10881;BME280;5493;48.884;8.338;2023-02-08T01:30:23;102245.66;;;-0.08;100.00
10881;BME280;5493;48.884;8.338;2023-02-08T01:32:51;102241.50;;;0.00;100.00
10881;BME280;5493;48.884;8.338;2023-02-08T01:35:17;102244.34;;;-0.15;100.00
10881;BME280;5493;48.884;8.338;2023-02-08T01:37:44;102247.88;;;-0.41;100.00
10881;BME280;5493;48.884;8.338;2023-02-08T01:40:11;102245.16;;;-0.27;100.00
10881;BME280;5493;48.884;8.338;2023-02-08T01:42:37;102238.16;;;-0.28;100.00
10881;BME280;5493;48.884;8.338;2023-02-08T01:45:25;102228.19;;;-0.37;100.00
10881;BME280;5493;48.884;8.338;2023-02-08T01:48:03;102223.75;;;-0.24;100.00
10881;BME280;5493;48.884;8.338;2023-02-08T01:50:38;102222.25;;;-0.28;100.00
10881;BME280;5493;48.884;8.338;2023-02-08T01:53:05;102220.50;;;-0.15;100.00
10881;BME280;5493;48.884;8.338;2023-02-08T01:55:34;102219.75;;;-0.17;100.00
10881;BME280;5493;48.884;8.338;2023-02-08T01:58:05;102224.09;;;-0.16;100.00
10881;BME280;5493;48.884;8.338;2023-02-08T02:00:34;102228.81;;;0.06;100.00
10881;BME280;5493;48.884;8.338;2023-02-08T02:03:03;102216.56;;;-0.10;100.00
10881;BME280;5493;48.884;8.338;2023-02-08T02:05:33;102226.53;;;-0.13;100.00
10881;BME280;5493;48.884;8.338;2023-02-08T02:08:00;102217.22;;;-0.06;100.00
10881;BME280;5493;48.884;8.338;2023-02-08T02:10:28;102222.75;;;0.04;100.00
10881;BME280;5493;48.884;8.338;2023-02-08T02:13:02;102212.31;;;-0.25;100.00
10881;BME280;5493;48.884;8.338;2023-02-08T02:15:29;102211.34;;;-0.24;100.00
10881;BME280;5493;48.884;8.338;2023-02-08T02:17:56;102212.84;;;-0.20;100.00
10881;BME280;5493;48.884;8.338;2023-02-08T02:20:35;102219.34;;;0.02;100.00
10881;BME280;5493;48.884;8.338;2023-02-08T02:23:31;102217.00;;;-0.16;100.00
10881;BME280;5493;48.884;8.338;2023-02-08T02:26:42;102215.00;;;-0.12;100.00
10881;BME280;5493;48.884;8.338;2023-02-08T02:29:40;102208.03;;;-0.40;100.00
10881;BME280;5493;48.884;8.338;2023-02-08T02:32:37;102207.78;;;-0.50;100.00
10881;BME280;5493;48.884;8.338;2023-02-08T02:35:10;102214.44;;;-0.57;100.00
10881;BME280;5493;48.884;8.338;2023-02-08T02:37:47;102212.19;;;-0.63;100.00
10881;BME280;5493;48.884;8.338;2023-02-08T02:40:25;102219.00;;;-0.59;100.00
10881;BME280;5493;48.884;8.338;2023-02-08T02:43:00;102221.09;;;-0.64;100.00
10881;BME280;5493;48.884;8.338;2023-02-08T02:46:04;102218.94;;;-0.71;100.00
10881;BME280;5493;48.884;8.338;2023-02-08T02:48:39;102217.59;;;-0.64;100.00
10881;BME280;5493;48.884;8.338;2023-02-08T02:51:09;102224.34;;;-0.73;100.00
10881;BME280;5493;48.884;8.338;2023-02-08T02:53:43;102215.47;;;-0.86;100.00
10881;BME280;5493;48.884;8.338;2023-02-08T02:56:14;102227.09;;;-0.74;100.00
10881;BME280;5493;48.884;8.338;2023-02-08T02:58:43;102219.22;;;-0.76;100.00
10881;BME280;5493;48.884;8.338;2023-02-08T03:01:10;102212.63;;;-0.83;100.00
10881;BME280;5493;48.884;8.338;2023-02-08T03:03:39;102211.06;;;-0.59;100.00
10881;BME280;5493;48.884;8.338;2023-02-08T03:06:09;102208.59;;;-0.62;100.00
10881;BME280;5493;48.884;8.338;2023-02-08T03:09:04;102208.94;;;-0.54;100.00
10881;BME280;5493;48.884;8.338;2023-02-08T03:11:34;102197.38;;;-0.79;100.00
10881;BME280;5493;48.884;8.338;2023-02-08T03:14:22;102196.91;;;-0.98;100.00
10881;BME280;5493;48.884;8.338;2023-02-08T03:17:03;102208.13;;;-0.95;100.00
10881;BME280;5493;48.884;8.338;2023-02-08T03:19:38;102204.22;;;-0.89;100.00
10881;BME280;5493;48.884;8.338;2023-02-08T03:22:13;102208.84;;;-0.79;100.00
10881;BME280;5493;48.884;8.338;2023-02-08T03:24:48;102212.41;;;-1.07;100.00
10881;BME280;5493;48.884;8.338;2023-02-08T03:27:22;102206.59;;;-0.85;100.00
10881;BME280;5493;48.884;8.338;2023-02-08T03:29:57;102203.56;;;-1.20;100.00
10881;BME280;5493;48.884;8.338;2023-02-08T03:32:28;102205.78;;;-1.00;100.00
10881;BME280;5493;48.884;8.338;2023-02-08T03:35:02;102207.31;;;-1.10;100.00
10881;BME280;5493;48.884;8.338;2023-02-08T03:37:35;102210.16;;;-1.13;100.00
10881;BME280;5493;48.884;8.338;2023-02-08T03:40:06;102213.09;;;-1.17;100.00
10881;BME280;5493;48.884;8.338;2023-02-08T03:42:34;102211.56;;;-1.07;100.00
10881;BME280;5493;48.884;8.338;2023-02-08T03:45:06;102204.78;;;-1.25;100.00
10881;BME280;5493;48.884;8.338;2023-02-08T03:47:38;102212.31;;;-1.19;100.00
10881;BME280;5493;48.884;8.338;2023-02-08T03:50:10;102216.22;;;-1.25;100.00
10881;BME280;5493;48.884;8.338;2023-02-08T03:52:37;102218.00;;;-1.25;100.00
10881;BME280;5493;48.884;8.338;2023-02-08T03:55:08;102211.13;;;-1.28;100.00
10881;BME280;5493;48.884;8.338;2023-02-08T03:57:39;102220.13;;;-1.30;100.00
10881;BME280;5493;48.884;8.338;2023-02-08T04:00:11;102212.06;;;-1.29;100.00
10881;BME280;5493;48.884;8.338;2023-02-08T04:02:42;102219.59;;;-1.23;100.00
10881;BME280;5493;48.884;8.338;2023-02-08T04:05:12;102218.50;;;-1.33;100.00
10881;BME280;5493;48.884;8.338;2023-02-08T04:07:39;102210.16;;;-1.41;100.00
10881;BME280;5493;48.884;8.338;2023-02-08T04:10:06;102215.84;;;-1.33;100.00
10881;BME280;5493;48.884;8.338;2023-02-08T04:12:32;102215.97;;;-1.34;100.00
10881;BME280;5493;48.884;8.338;2023-02-08T04:14:59;102208.56;;;-1.29;100.00
10881;BME280;5493;48.884;8.338;2023-02-08T04:17:26;102209.59;;;-1.18;100.00
10881;BME280;5493;48.884;8.338;2023-02-08T04:19:52;102207.59;;;-1.14;100.00
10881;BME280;5493;48.884;8.338;2023-02-08T04:22:20;102205.38;;;-1.34;100.00
10881;BME280;5493;48.884;8.338;2023-02-08T04:24:46;102199.59;;;-1.27;100.00
10881;BME280;5493;48.884;8.338;2023-02-08T04:27:13;102212.25;;;-1.32;100.00
10881;BME280;5493;48.884;8.338;2023-02-08T04:29:39;102205.19;;;-1.31;100.00
10881;BME280;5493;48.884;8.338;2023-02-08T04:32:06;102207.06;;;-1.48;100.00
10881;BME280;5493;48.884;8.338;2023-02-08T04:34:35;102215.78;;;-1.60;100.00
10881;BME280;5493;48.884;8.338;2023-02-08T04:37:02;102216.91;;;-1.35;100.00
10881;BME280;5493;48.884;8.338;2023-02-08T04:39:30;102209.03;;;-1.37;100.00
10881;BME280;5493;48.884;8.338;2023-02-08T04:41:56;102204.22;;;-1.44;100.00
10881;BME280;5493;48.884;8.338;2023-02-08T04:44:23;102202.81;;;-1.36;100.00
10881;BME280;5493;48.884;8.338;2023-02-08T04:46:49;102199.06;;;-1.60;100.00
10881;BME280;5493;48.884;8.338;2023-02-08T04:49:16;102194.69;;;-1.61;100.00
10881;BME280;5493;48.884;8.338;2023-02-08T04:51:43;102198.19;;;-1.75;100.00
10881;BME280;5493;48.884;8.338;2023-02-08T04:54:10;102193.38;;;-1.54;100.00
10881;BME280;5493;48.884;8.338;2023-02-08T04:56:37;102197.16;;;-1.58;100.00
10881;BME280;5493;48.884;8.338;2023-02-08T04:59:04;102190.84;;;-1.56;100.00
10881;BME280;5493;48.884;8.338;2023-02-08T05:01:30;102189.59;;;-1.50;100.00
10881;BME280;5493;48.884;8.338;2023-02-08T05:03:57;102181.75;;;-1.66;100.00
10881;BME280;5493;48.884;8.338;2023-02-08T05:06:24;102179.31;;;-1.69;100.00
10881;BME280;5493;48.884;8.338;2023-02-08T05:08:50;102174.97;;;-1.56;100.00
10881;BME280;5493;48.884;8.338;2023-02-08T05:11:19;102181.56;;;-1.77;100.00
10881;BME280;5493;48.884;8.338;2023-02-08T05:13:47;102173.81;;;-1.66;100.00
10881;BME280;5493;48.884;8.338;2023-02-08T05:16:14;102176.56;;;-1.67;100.00
10881;BME280;5493;48.884;8.338;2023-02-08T05:18:41;102177.59;;;-1.84;100.00
10881;BME280;5493;48.884;8.338;2023-02-08T05:21:08;102171.56;;;-1.72;100.00
10881;BME280;5493;48.884;8.338;2023-02-08T05:23:35;102172.13;;;-1.38;100.00
10881;BME280;5493;48.884;8.338;2023-02-08T05:26:04;102170.44;;;-1.82;100.00
10881;BME280;5493;48.884;8.338;2023-02-08T05:28:31;102169.78;;;-1.71;100.00
10881;BME280;5493;48.884;8.338;2023-02-08T05:30:59;102167.41;;;-1.62;100.00
10881;BME280;5493;48.884;8.338;2023-02-08T05:33:25;102163.44;;;-1.55;100.00
10881;BME280;5493;48.884;8.338;2023-02-08T05:35:52;102160.25;;;-1.74;100.00
10881;BME280;5493;48.884;8.338;2023-02-08T05:38:19;102158.59;;;-1.48;100.00
10881;BME280;5493;48.884;8.338;2023-02-08T05:40:45;102164.22;;;-1.67;100.00
10881;BME280;5493;48.884;8.338;2023-02-08T05:43:12;102157.94;;;-1.66;100.00
10881;BME280;5493;48.884;8.338;2023-02-08T05:45:38;102160.06;;;-1.71;100.00
10881;BME280;5493;48.884;8.338;2023-02-08T05:48:06;102165.03;;;-1.66;100.00
10881;BME280;5493;48.884;8.338;2023-02-08T05:50:32;102170.16;;;-1.63;100.00
10881;BME280;5493;48.884;8.338;2023-02-08T05:52:59;102167.00;;;-1.84;100.00
10881;BME280;5493;48.884;8.338;2023-02-08T05:55:25;102170.03;;;-1.76;100.00
10881;BME280;5493;48.884;8.338;2023-02-08T05:57:52;102172.41;;;-1.71;100.00
10881;BME280;5493;48.884;8.338;2023-02-08T06:00:19;102176.00;;;-1.72;100.00
10881;BME280;5493;48.884;8.338;2023-02-08T06:02:46;102169.56;;;-1.68;100.00
10881;BME280;5493;48.884;8.338;2023-02-08T06:05:14;102184.31;;;-1.92;100.00
10881;BME280;5493;48.884;8.338;2023-02-08T06:07:41;102172.22;;;-1.82;100.00
10881;BME280;5493;48.884;8.338;2023-02-08T06:10:08;102180.63;;;-1.76;100.00
10881;BME280;5493;48.884;8.338;2023-02-08T06:12:34;102176.94;;;-1.87;100.00
10881;BME280;5493;48.884;8.338;2023-02-08T06:15:01;102183.72;;;-1.83;100.00
10881;BME280;5493;48.884;8.338;2023-02-08T06:17:27;102181.84;;;-1.95;100.00
10881;BME280;5493;48.884;8.338;2023-02-08T06:19:54;102186.94;;;-1.92;100.00
10881;BME280;5493;48.884;8.338;2023-02-08T06:22:22;102194.22;;;-1.96;100.00
10881;BME280;5493;48.884;8.338;2023-02-08T06:24:48;102193.16;;;-2.08;100.00
10881;BME280;5493;48.884;8.338;2023-02-08T06:27:15;102196.53;;;-2.06;100.00
10881;BME280;5493;48.884;8.338;2023-02-08T06:29:41;102195.59;;;-2.05;100.00
10881;BME280;5493;48.884;8.338;2023-02-08T06:32:08;102197.41;;;-1.91;100.00
10881;BME280;5493;48.884;8.338;2023-02-08T06:34:35;102194.47;;;-2.01;100.00
10881;BME280;5493;48.884;8.338;2023-02-08T06:37:02;102192.22;;;-1.92;100.00
10881;BME280;5493;48.884;8.338;2023-02-08T06:39:31;102183.78;;;-2.13;100.00
10881;BME280;5493;48.884;8.338;2023-02-08T06:41:57;102194.84;;;-2.21;100.00
10881;BME280;5493;48.884;8.338;2023-02-08T06:44:24;102187.06;;;-2.24;100.00
10881;BME280;5493;48.884;8.338;2023-02-08T06:46:50;102191.16;;;-2.18;100.00
10881;BME280;5493;48.884;8.338;2023-02-08T06:49:17;102194.94;;;-2.08;100.00
10881;BME280;5493;48.884;8.338;2023-02-08T06:51:44;102198.81;;;-2.14;100.00
10881;BME280;5493;48.884;8.338;2023-02-08T06:54:10;102195.31;;;-2.14;100.00
10881;BME280;5493;48.884;8.338;2023-02-08T06:56:38;102192.75;;;-2.16;100.00
10881;BME280;5493;48.884;8.338;2023-02-08T06:59:04;102191.81;;;-2.15;100.00
10881;BME280;5493;48.884;8.338;2023-02-08T07:01:31;102194.94;;;-2.08;100.00
10881;BME280;5493;48.884;8.338;2023-02-08T07:03:57;102198.69;;;-2.12;100.00
10881;BME280;5493;48.884;8.338;2023-02-08T07:06:24;102192.25;;;-2.22;100.00
10881;BME280;5493;48.884;8.338;2023-02-08T07:08:51;102199.44;;;-2.24;100.00
10881;BME280;5493;48.884;8.338;2023-02-08T07:11:19;102201.72;;;-2.18;100.00
10881;BME280;5493;48.884;8.338;2023-02-08T07:13:48;102209.06;;;-2.23;100.00
10881;BME280;5493;48.884;8.338;2023-02-08T07:16:16;102210.16;;;-2.27;100.00
10881;BME280;5493;48.884;8.338;2023-02-08T07:18:43;102204.13;;;-2.29;100.00
10881;BME280;5493;48.884;8.338;2023-02-08T07:21:10;102205.72;;;-2.27;100.00
10881;BME280;5493;48.884;8.338;2023-02-08T07:23:37;102203.75;;;-2.23;100.00
10881;BME280;5493;48.884;8.338;2023-02-08T07:26:05;102198.81;;;-2.14;100.00
10881;BME280;5493;48.884;8.338;2023-02-08T07:28:33;102200.03;;;-2.05;100.00
10881;BME280;5493;48.884;8.338;2023-02-08T07:31:05;102205.03;;;-2.15;100.00
10881;BME280;5493;48.884;8.338;2023-02-08T07:33:31;102204.13;;;-2.00;100.00
10881;BME280;5493;48.884;8.338;2023-02-08T07:35:58;102206.56;;;-1.96;100.00
10881;BME280;5493;48.884;8.338;2023-02-08T07:38:24;102212.56;;;-2.09;100.00
10881;BME280;5493;48.884;8.338;2023-02-08T07:40:51;102199.47;;;-2.10;100.00
10881;BME280;5493;48.884;8.338;2023-02-08T07:43:17;102196.56;;;-1.91;100.00
10881;BME280;5493;48.884;8.338;2023-02-08T07:45:44;102196.28;;;-1.87;100.00
10881;BME280;5493;48.884;8.338;2023-02-08T07:48:12;102200.19;;;-1.78;100.00
10881;BME280;5493;48.884;8.338;2023-02-08T07:50:38;102195.25;;;-1.84;100.00
10881;BME280;5493;48.884;8.338;2023-02-08T07:53:05;102204.41;;;-1.76;100.00
10881;BME280;5493;48.884;8.338;2023-02-08T07:55:31;102192.44;;;-1.67;100.00
10881;BME280;5493;48.884;8.338;2023-02-08T07:57:58;102188.81;;;-1.66;100.00
10881;BME280;5493;48.884;8.338;2023-02-08T08:00:24;102183.66;;;-1.54;100.00
10881;BME280;5493;48.884;8.338;2023-02-08T08:02:51;102180.81;;;-1.51;100.00
10881;BME280;5493;48.884;8.338;2023-02-08T08:05:19;102177.50;;;-1.54;100.00
10881;BME280;5493;48.884;8.338;2023-02-08T08:07:46;102179.47;;;-1.29;100.00
10881;BME280;5493;48.884;8.338;2023-02-08T08:10:12;102181.25;;;-1.30;100.00
10881;BME280;5493;48.884;8.338;2023-02-08T08:12:39;102177.44;;;-1.12;100.00
10881;BME280;5493;48.884;8.338;2023-02-08T08:15:06;102178.44;;;-1.00;100.00
10881;BME280;5493;48.884;8.338;2023-02-08T08:17:32;102183.75;;;-1.00;100.00
10881;BME280;5493;48.884;8.338;2023-02-08T08:19:59;102182.19;;;-0.90;100.00
10881;BME280;5493;48.884;8.338;2023-02-08T08:22:27;102181.25;;;-0.89;100.00
10881;BME280;5493;48.884;8.338;2023-02-08T08:24:53;102173.81;;;-0.70;100.00
10881;BME280;5493;48.884;8.338;2023-02-08T08:27:20;102176.34;;;-0.68;100.00
10881;BME280;5493;48.884;8.338;2023-02-08T08:29:46;102164.03;;;-0.42;100.00
10881;BME280;5493;48.884;8.338;2023-02-08T08:32:13;102170.31;;;-0.43;100.00
10881;BME280;5493;48.884;8.338;2023-02-08T08:34:39;102175.13;;;-0.50;100.00
10881;BME280;5493;48.884;8.338;2023-02-08T08:37:06;102175.09;;;-0.23;100.00
10881;BME280;5493;48.884;8.338;2023-02-08T08:39:34;102172.53;;;-0.25;100.00
10881;BME280;5493;48.884;8.338;2023-02-08T08:42:02;102177.34;;;-0.05;100.00
10881;BME280;5493;48.884;8.338;2023-02-08T08:44:29;102169.50;;;-0.06;100.00
10881;BME280;5493;48.884;8.338;2023-02-08T08:46:56;102168.53;;;0.08;100.00
10881;BME280;5493;48.884;8.338;2023-02-08T08:49:23;102165.28;;;0.17;100.00
10881;BME280;5493;48.884;8.338;2023-02-08T08:51:50;102157.72;;;0.36;100.00
10881;BME280;5493;48.884;8.338;2023-02-08T08:54:17;102150.19;;;0.42;100.00
10881;BME280;5493;48.884;8.338;2023-02-08T08:56:45;102153.34;;;0.47;100.00
10881;BME280;5493;48.884;8.338;2023-02-08T08:59:12;102149.19;;;0.56;100.00
10881;BME280;5493;48.884;8.338;2023-02-08T09:01:39;102147.78;;;0.76;100.00
10881;BME280;5493;48.884;8.338;2023-02-08T09:04:06;102147.78;;;0.99;100.00
10881;BME280;5493;48.884;8.338;2023-02-08T09:06:33;102148.38;;;1.16;100.00
10881;BME280;5493;48.884;8.338;2023-02-08T09:09:00;102146.28;;;1.08;100.00
10881;BME280;5493;48.884;8.338;2023-02-08T09:11:26;102146.72;;;1.26;100.00
10881;BME280;5493;48.884;8.338;2023-02-08T09:13:54;102141.00;;;1.43;100.00
10881;BME280;5493;48.884;8.338;2023-02-08T09:16:22;102148.88;;;1.56;100.00
10881;BME280;5493;48.884;8.338;2023-02-08T09:18:49;102135.72;;;1.54;100.00
10881;BME280;5493;48.884;8.338;2023-02-08T09:21:18;102138.56;;;1.75;100.00
10881;BME280;5493;48.884;8.338;2023-02-08T09:23:45;102141.38;;;1.84;100.00
10881;BME280;5493;48.884;8.338;2023-02-08T09:26:14;102146.94;;;1.92;100.00
10881;BME280;5493;48.884;8.338;2023-02-08T09:28:41;102143.22;;;2.06;100.00
10881;BME280;5493;48.884;8.338;2023-02-08T09:31:11;102142.75;;;2.23;100.00
10881;BME280;5493;48.884;8.338;2023-02-08T09:33:38;102145.53;;;2.55;100.00
10881;BME280;5493;48.884;8.338;2023-02-08T09:36:05;102144.06;;;2.40;97.48
10881;BME280;5493;48.884;8.338;2023-02-08T09:38:33;102140.09;;;2.57;90.90
10881;BME280;5493;48.884;8.338;2023-02-08T09:44:27;102137.16;;;2.82;85.91
10881;BME280;5493;48.884;8.338;2023-02-08T09:47:00;102126.34;;;2.94;82.14
10881;BME280;5493;48.884;8.338;2023-02-08T09:49:32;102129.50;;;2.88;74.86
10881;BME280;5493;48.884;8.338;2023-02-08T09:52:02;102113.53;;;3.20;69.53
10881;BME280;5493;48.884;8.338;2023-02-08T09:54:36;102123.59;;;3.17;66.84
10881;BME280;5493;48.884;8.338;2023-02-08T09:57:10;102122.94;;;3.35;65.47
10881;BME280;5493;48.884;8.338;2023-02-08T09:59:39;102120.00;;;3.38;60.19
10881;BME280;5493;48.884;8.338;2023-02-08T10:02:18;102129.59;;;3.62;58.73
10881;BME280;5493;48.884;8.338;2023-02-08T10:04:54;102128.81;;;3.71;57.92
10881;BME280;5493;48.884;8.338;2023-02-08T10:07:23;102131.00;;;3.66;58.47
10881;BME280;5493;48.884;8.338;2023-02-08T10:09:51;102130.25;;;3.75;58.04
10881;BME280;5493;48.884;8.338;2023-02-08T10:12:22;102121.19;;;3.87;57.42
10881;BME280;5493;48.884;8.338;2023-02-08T10:15:01;102121.59;;;3.82;58.47
10881;BME280;5493;48.884;8.338;2023-02-08T10:17:55;102120.47;;;3.85;58.75
10881;BME280;5493;48.884;8.338;2023-02-08T10:20:34;102119.94;;;3.91;61.07
10881;BME280;5493;48.884;8.338;2023-02-08T10:23:12;102112.31;;;4.07;59.50
10881;BME280;5493;48.884;8.338;2023-02-08T10:25:54;102114.00;;;4.08;55.55
10881;BME280;5493;48.884;8.338;2023-02-08T10:28:37;102103.38;;;4.18;60.02
10881;BME280;5493;48.884;8.338;2023-02-08T10:31:13;102098.03;;;4.18;60.03
10881;BME280;5493;48.884;8.338;2023-02-08T10:33:51;102103.47;;;4.37;59.64
10881;BME280;5493;48.884;8.338;2023-02-08T10:36:22;102105.00;;;4.39;59.87
10881;BME280;5493;48.884;8.338;2023-02-08T10:38:52;102088.50;;;4.55;58.24
10881;BME280;5493;48.884;8.338;2023-02-08T10:41:25;102098.03;;;4.58;58.03
10881;BME280;5493;48.884;8.338;2023-02-08T10:43:59;102078.19;;;4.51;55.89
10881;BME280;5493;48.884;8.338;2023-02-08T10:46:33;102081.44;;;4.54;55.83
10881;BME280;5493;48.884;8.338;2023-02-08T10:49:07;102078.91;;;4.53;57.01
10881;BME280;5493;48.884;8.338;2023-02-08T10:51:36;102077.97;;;4.82;57.25
10881;BME280;5493;48.884;8.338;2023-02-08T10:54:03;102084.75;;;4.77;58.26
10881;BME280;5493;48.884;8.338;2023-02-08T10:56:43;102077.13;;;4.72;57.58
10881;BME280;5493;48.884;8.338;2023-02-08T10:59:16;102078.09;;;4.71;56.23
10881;BME280;5493;48.884;8.338;2023-02-08T11:01:45;102072.22;;;4.87;56.73
10881;BME280;5493;48.884;8.338;2023-02-08T11:04:14;102064.22;;;4.87;56.20
10881;BME280;5493;48.884;8.338;2023-02-08T11:06:43;102074.19;;;4.85;56.37
10881;BME280;5493;48.884;8.338;2023-02-08T11:09:20;102061.53;;;4.96;57.64
10881;BME280;5493;48.884;8.338;2023-02-08T11:11:49;102065.34;;;4.94;58.40
10881;BME280;5493;48.884;8.338;2023-02-08T11:14:18;102062.00;;;5.21;59.15
10881;BME280;5493;48.884;8.338;2023-02-08T11:16:50;102053.41;;;5.17;57.53
10881;BME280;5493;48.884;8.338;2023-02-08T11:19:26;102057.03;;;5.07;55.82
10881;BME280;5493;48.884;8.338;2023-02-08T11:21:55;102044.78;;;5.33;56.39
10881;BME280;5493;48.884;8.338;2023-02-08T11:24:27;102051.41;;;5.48;57.67
10881;BME280;5493;48.884;8.338;2023-02-08T11:26:55;102048.31;;;5.33;55.02
10881;BME280;5493;48.884;8.338;2023-02-08T11:29:23;102049.69;;;5.47;56.10
10881;BME280;5493;48.884;8.338;2023-02-08T11:32:01;102041.13;;;5.53;56.08
10881;BME280;5493;48.884;8.338;2023-02-08T11:34:31;102047.88;;;5.47;56.52
10881;BME280;5493;48.884;8.338;2023-02-08T11:37:01;102042.63;;;5.65;55.89
10881;BME280;5493;48.884;8.338;2023-02-08T11:39:34;102032.75;;;5.66;57.25
10881;BME280;5493;48.884;8.338;2023-02-08T11:42:03;102029.16;;;6.04;58.96
10881;BME280;5493;48.884;8.338;2023-02-08T11:44:32;102019.31;;;5.94;58.70
10881;BME280;5493;48.884;8.338;2023-02-08T11:47:02;102019.91;;;5.88;57.75
10881;BME280;5493;48.884;8.338;2023-02-08T11:49:36;102012.69;;;5.99;56.26
10881;BME280;5493;48.884;8.338;2023-02-08T11:52:04;102013.53;;;5.99;54.52
10881;BME280;5493;48.884;8.338;2023-02-08T11:54:34;102009.22;;;6.43;53.38
10881;BME280;5493;48.884;8.338;2023-02-08T11:57:08;102012.00;;;7.04;55.37
10881;BME280;5493;48.884;8.338;2023-02-08T11:59:36;102006.47;;;7.23;52.55
10881;BME280;5493;48.884;8.338;2023-02-08T12:02:21;102004.75;;;7.91;51.05
10881;BME280;5493;48.884;8.338;2023-02-08T12:04:52;101998.66;;;8.23;49.62
10881;BME280;5493;48.884;8.338;2023-02-08T12:07:25;101999.94;;;8.45;49.28
10881;BME280;5493;48.884;8.338;2023-02-08T12:10:13;101999.97;;;8.61;48.22
10881;BME280;5493;48.884;8.338;2023-02-08T12:12:51;101998.41;;;8.34;47.49
10881;BME280;5493;48.884;8.338;2023-02-08T12:15:27;101994.72;;;8.35;46.77
10881;BME280;5493;48.884;8.338;2023-02-08T12:18:08;101999.50;;;8.66;46.82
10881;BME280;5493;48.884;8.338;2023-02-08T12:20:42;101999.72;;;9.21;46.08
10881;BME280;5493;48.884;8.338;2023-02-08T12:23:24;101998.03;;;9.04;44.70
10881;BME280;5493;48.884;8.338;2023-02-08T12:26:03;101997.53;;;9.00;45.78
10881;BME280;5493;48.884;8.338;2023-02-08T12:28:47;101983.88;;;9.42;44.77
10881;BME280;5493;48.884;8.338;2023-02-08T12:31:22;101981.69;;;9.37;44.40
10881;BME280;5493;48.884;8.338;2023-02-08T12:34:02;101984.63;;;9.83;43.83
10881;BME280;5493;48.884;8.338;2023-02-08T12:36:49;101986.13;;;9.85;43.14
10881;BME280;5493;48.884;8.338;2023-02-08T12:39:42;101977.22;;;9.77;42.16
10881;BME280;5493;48.884;8.338;2023-02-08T12:42:39;101971.84;;;9.77;41.03
10881;BME280;5493;48.884;8.338;2023-02-08T12:45:47;101970.78;;;9.94;41.61
10881;BME280;5493;48.884;8.338;2023-02-08T12:48:26;101983.56;;;9.29;41.26
10881;BME280;5493;48.884;8.338;2023-02-08T12:51:04;101973.75;;;9.60;42.25
10881;BME280;5493;48.884;8.338;2023-02-08T12:53:38;101957.97;;;9.41;41.96
10881;BME280;5493;48.884;8.338;2023-02-08T12:56:12;101958.78;;;9.50;42.29
10881;BME280;5493;48.884;8.338;2023-02-08T12:58:43;101963.53;;;9.48;42.67
10881;BME280;5493;48.884;8.338;2023-02-08T13:01:14;101964.47;;;9.63;41.94
10881;BME280;5493;48.884;8.338;2023-02-08T13:03:46;101950.09;;;8.91;42.42
10881;BME280;5493;48.884;8.338;2023-02-08T13:06:16;101950.94;;;9.08;42.05
10881;BME280;5493;48.884;8.338;2023-02-08T13:08:48;101954.31;;;9.18;41.35
10881;BME280;5493;48.884;8.338;2023-02-08T13:11:22;101947.56;;;9.06;42.46
10881;BME280;5493;48.884;8.338;2023-02-08T13:13:56;101946.22;;;9.10;43.18
10881;BME280;5493;48.884;8.338;2023-02-08T13:16:26;101947.75;;;8.96;42.79
10881;BME280;5493;48.884;8.338;2023-02-08T13:19:20;101940.00;;;9.17;43.45